Time;durP1;ratioP1;P1;durP2;ratioP2;P2;SDS_P1;SDS_P2;PMS_P1;PMS_P2;Temp;Humidity;BMP_temperature;BMP_pressure;BME280_temperature;BME280_humidity;BME280_pressure;Samples;Min_cycle;Max_cycle;Signal;HPM_P1;HPM_P2
2023/04/26 00:01:15;;;;;;;2.90;2.58;;;;;;;;;;4999933;28;20049;-71
2023/04/26 00:03:41;;;;;;;4.97;3.70;;;;;;;;;;5000389;28;20451;-71
2023/04/26 00:06:08;;;;;;;4.10;3.25;;;;;;;;;;5000213;28;20164;-71
2023/04/26 00:08:35;;;;;;;4.40;3.55;;;;;;;;;;5000588;28;20050;-69
2023/04/26 00:11:00;;;;;;;4.15;3.35;;;;;;;;;;5001039;28;20041;-71
2023/04/26 00:13:26;;;;;;;5.78;3.75;;;;;;;;;;4999747;28;20042;-71
2023/04/26 00:15:52;;;;;;;10.25;4.93;;;;;;;;;;4999932;28;20538;-72
2023/04/26 00:18:17;;;;;;;8.20;4.95;;;;;;;;;;5000625;28;20068;-69
2023/04/26 00:20:43;;;;;;;4.10;3.47;;;;;;;;;;4999497;28;20049;-69
2023/04/26 00:23:09;;;;;;;13.48;5.60;;;;;;;;;;5000524;28;20290;-70
2023/04/26 00:25:35;;;;;;;7.13;4.90;;;;;;;;;;4999812;28;20072;-71
2023/04/26 00:28:01;;;;;;;7.95;5.25;;;;;;;;;;5000174;28;20137;-69
2023/04/26 00:30:27;;;;;;;8.40;5.15;;;;;;;;;;4999110;28;20498;-69
2023/04/26 00:32:53;;;;;;;9.38;5.95;;;;;;;;;;4989773;28;20072;-71
2023/04/26 00:35:19;;;;;;;7.85;5.30;;;;;;;;;;4993067;28;20042;-73
2023/04/26 00:37:45;;;;;;;8.75;5.82;;;;;;;;;;4999941;28;20065;-71
2023/04/26 00:40:11;;;;;;;9.30;6.20;;;;;;;;;;5002229;28;20727;-71
2023/04/26 00:42:38;;;;;;;14.32;6.82;;;;;;;;;;5004471;28;20053;-72
2023/04/26 00:45:06;;;;;;;10.50;7.15;;;;;;;;;;5004535;28;20107;-73
2023/04/26 00:47:32;;;;;;;10.93;6.72;;;;;;;;;;5003647;28;20084;-71
2023/04/26 00:49:59;;;;;;;11.38;7.18;;;;;;;;;;5004037;28;20053;-74
2023/04/26 00:52:26;;;;;;;12.88;7.70;;;;;;;;;;5004394;28;20050;-72
2023/04/26 00:54:53;;;;;;;11.15;7.28;;;;;;;;;;5002631;28;20041;-73
2023/04/26 00:57:19;;;;;;;12.70;7.70;;;;;;;;;;5003482;28;20042;-74
2023/04/26 00:59:45;;;;;;;9.48;6.57;;;;;;;;;;5003758;28;20045;-73
2023/04/26 01:02:10;;;;;;;16.88;7.95;;;;;;;;;;5003924;28;20046;-71
2023/04/26 01:04:36;;;;;;;11.95;7.72;;;;;;;;;;5004270;28;20062;-70
2023/04/26 01:07:02;;;;;;;12.38;7.90;;;;;;;;;;5002477;28;20041;-69
2023/04/26 01:09:31;;;;;;;14.80;7.50;;;;;;;;;;5001543;28;20050;-72
2023/04/26 01:11:59;;;;;;;14.65;8.23;;;;;;;;;;5002004;28;20570;-69
2023/04/26 01:14:26;;;;;;;15.48;8.20;;;;;;;;;;5000273;28;20066;-70
2023/04/26 01:16:52;;;;;;;13.30;8.10;;;;;;;;;;5002590;28;20121;-70
2023/04/26 01:19:18;;;;;;;12.52;8.45;;;;;;;;;;5002931;28;20045;-69
2023/04/26 01:21:44;;;;;;;12.10;7.32;;;;;;;;;;4999395;28;20057;-72
2023/04/26 01:24:11;;;;;;;13.02;8.20;;;;;;;;;;5003454;28;20632;-72
2023/04/26 01:26:45;;;;;;;13.55;6.82;;;;;;;;;;5002412;28;20053;-69
2023/04/26 01:29:20;;;;;;;17.90;8.85;;;;;;;;;;5001476;28;20126;-69
2023/04/26 01:31:47;;;;;;;12.52;8.60;;;;;;;;;;5002752;28;20137;-71
2023/04/26 01:34:12;;;;;;;19.05;9.93;;;;;;;;;;5003682;28;20068;-69
2023/04/26 01:36:38;;;;;;;17.30;8.88;;;;;;;;;;5002073;28;20487;-69
2023/04/26 01:39:04;;;;;;;15.95;8.63;;;;;;;;;;4999725;28;20053;-71
2023/04/26 01:41:29;;;;;;;15.32;8.70;;;;;;;;;;5002794;28;20077;-72
2023/04/26 01:43:54;;;;;;;13.50;8.13;;;;;;;;;;5002846;28;20041;-69
2023/04/26 01:46:21;;;;;;;13.15;7.45;;;;;;;;;;5003603;28;20046;-69
2023/04/26 01:48:46;;;;;;;13.00;8.13;;;;;;;;;;5003191;28;20058;-69
2023/04/26 01:51:12;;;;;;;13.43;8.50;;;;;;;;;;5001469;28;20445;-71
2023/04/26 01:53:38;;;;;;;13.35;8.25;;;;;;;;;;5003044;28;20053;-69
2023/04/26 01:56:04;;;;;;;14.00;8.60;;;;;;;;;;5001556;28;20045;-69
2023/04/26 01:58:30;;;;;;;14.95;8.80;;;;;;;;;;5003310;28;20096;-69
2023/04/26 02:00:56;;;;;;;14.05;8.88;;;;;;;;;;5001659;28;20050;-69
2023/04/26 02:03:22;;;;;;;13.32;8.32;;;;;;;;;;5002106;28;20426;-69
2023/04/26 02:05:49;;;;;;;11.82;6.93;;;;;;;;;;5002506;28;20085;-69
2023/04/26 02:08:14;;;;;;;17.75;9.23;;;;;;;;;;5002885;28;20081;-67
2023/04/26 02:10:40;;;;;;;18.40;10.15;;;;;;;;;;5001116;28;20053;-68
2023/04/26 02:13:07;;;;;;;15.50;10.75;;;;;;;;;;5000844;28;20054;-70
2023/04/26 02:15:33;;;;;;;18.02;9.25;;;;;;;;;;5000923;28;20128;-69
2023/04/26 02:17:58;;;;;;;18.63;10.02;;;;;;;;;;5002026;28;20398;-69
2023/04/26 02:20:24;;;;;;;19.33;9.82;;;;;;;;;;5003060;28;20049;-69
2023/04/26 02:22:49;;;;;;;16.40;9.90;;;;;;;;;;5002482;28;20054;-69
2023/04/26 02:25:15;;;;;;;18.92;8.90;;;;;;;;;;5000766;28;20061;-69
2023/04/26 02:27:40;;;;;;;16.20;9.77;;;;;;;;;;5001129;28;20065;-70
2023/04/26 02:30:06;;;;;;;18.67;10.32;;;;;;;;;;5002070;28;20145;-71
2023/04/26 02:32:33;;;;;;;18.67;9.10;;;;;;;;;;5000848;28;20058;-69
2023/04/26 02:34:58;;;;;;;17.88;8.82;;;;;;;;;;5001831;28;20041;-71
2023/04/26 02:37:24;;;;;;;17.63;8.73;;;;;;;;;;5001496;28;20049;-68
2023/04/26 02:39:50;;;;;;;11.77;6.85;;;;;;;;;;5000750;28;20042;-68
2023/04/26 02:42:16;;;;;;;12.40;7.50;;;;;;;;;;5003273;28;20469;-68
2023/04/26 02:44:42;;;;;;;13.52;7.30;;;;;;;;;;4985143;28;20038;-69
2023/04/26 02:47:08;;;;;;;12.90;7.30;;;;;;;;;;5001346;28;20053;-69
2023/04/26 02:49:33;;;;;;;14.65;6.97;;;;;;;;;;4993125;28;20046;-69
2023/04/26 02:51:59;;;;;;;13.18;6.60;;;;;;;;;;5000310;28;20046;-69
2023/04/26 02:54:25;;;;;;;14.10;6.20;;;;;;;;;;4987317;28;20084;-69
2023/04/26 02:56:51;;;;;;;13.25;6.80;;;;;;;;;;4997387;28;22016;-69
2023/04/26 02:59:16;;;;;;;11.77;6.88;;;;;;;;;;4981373;28;20034;-69
2023/04/26 03:01:42;;;;;;;14.95;7.97;;;;;;;;;;4996735;28;20149;-69
2023/04/26 03:04:08;;;;;;;14.55;7.15;;;;;;;;;;4980773;28;20061;-69
2023/04/26 03:06:35;;;;;;;11.80;7.22;;;;;;;;;;4988041;28;20045;-69
2023/04/26 03:09:00;;;;;;;10.02;5.25;;;;;;;;;;5001361;28;20061;-69
2023/04/26 03:11:26;;;;;;;15.05;6.60;;;;;;;;;;5000646;28;20077;-68
2023/04/26 03:13:52;;;;;;;11.75;6.25;;;;;;;;;;4999842;28;20038;-69
2023/04/26 03:16:22;;;;;;;9.43;6.07;;;;;;;;;;4999976;28;20673;-71
2023/04/26 03:18:48;;;;;;;10.85;6.70;;;;;;;;;;5001930;28;20403;-68
2023/04/26 03:21:13;;;;;;;15.60;7.55;;;;;;;;;;4999856;28;20049;-70
2023/04/26 03:23:39;;;;;;;13.20;6.70;;;;;;;;;;4992594;28;20133;-69
2023/04/26 03:26:04;;;;;;;11.30;7.32;;;;;;;;;;5000287;28;20070;-69
2023/04/26 03:28:30;;;;;;;19.02;8.43;;;;;;;;;;5001167;28;20150;-68
2023/04/26 03:30:55;;;;;;;14.70;6.90;;;;;;;;;;5000215;28;20046;-69
2023/04/26 03:33:21;;;;;;;14.35;7.15;;;;;;;;;;5000855;28;20037;-70
2023/04/26 03:35:46;;;;;;;11.95;7.70;;;;;;;;;;5001298;28;20053;-68
2023/04/26 03:38:12;;;;;;;11.48;6.95;;;;;;;;;;5017170;28;20097;-69
2023/04/26 03:40:38;;;;;;;14.13;7.15;;;;;;;;;;4999903;28;20053;-71
2023/04/26 03:43:04;;;;;;;17.65;7.82;;;;;;;;;;5000937;28;20042;-68
2023/04/26 03:45:29;;;;;;;13.05;7.15;;;;;;;;;;5003421;28;20590;-69
2023/04/26 03:47:55;;;;;;;11.75;7.70;;;;;;;;;;5000681;28;20056;-71
2023/04/26 03:50:21;;;;;;;12.63;7.07;;;;;;;;;;5004445;28;20115;-68
2023/04/26 03:52:47;;;;;;;17.75;7.60;;;;;;;;;;4995254;28;20149;-70
2023/04/26 03:55:12;;;;;;;12.90;6.70;;;;;;;;;;5001585;28;20565;-68
2023/04/26 03:57:38;;;;;;;11.98;7.20;;;;;;;;;;5001527;28;20030;-68
2023/04/26 04:00:13;;;;;;;10.88;7.35;;;;;;;;;;5001991;28;20407;-68
2023/04/26 04:02:41;;;;;;;11.20;6.95;;;;;;;;;;5001304;28;20057;-67
2023/04/26 04:05:11;;;;;;;9.90;6.43;;;;;;;;;;4999499;28;20048;-70
2023/04/26 04:07:36;;;;;;;14.77;6.82;;;;;;;;;;4993099;28;20491;-71
2023/04/26 04:10:03;;;;;;;9.55;6.00;;;;;;;;;;4999586;28;20057;-70
2023/04/26 04:12:28;;;;;;;10.25;7.05;;;;;;;;;;5000175;28;20743;-70
2023/04/26 04:14:54;;;;;;;11.48;6.75;;;;;;;;;;5001014;28;20605;-70
2023/04/26 04:17:23;;;;;;;11.63;7.50;;;;;;;;;;4999043;28;20743;-70
2023/04/26 04:19:49;;;;;;;10.90;6.97;;;;;;;;;;4987834;28;20057;-70
2023/04/26 04:22:17;;;;;;;13.43;7.03;;;;;;;;;;4998940;28;20099;-71
2023/04/26 04:24:46;;;;;;;9.15;6.88;;;;;;;;;;4998108;28;20061;-71
2023/04/26 04:27:12;;;;;;;10.40;6.80;;;;;;;;;;4999638;28;20038;-70
2023/04/26 04:29:42;;;;;;;11.95;6.63;;;;;;;;;;4998442;28;20494;-71
2023/04/26 04:32:08;;;;;;;10.25;6.85;;;;;;;;;;4998107;28;20526;-71
2023/04/26 04:34:35;;;;;;;11.65;7.00;;;;;;;;;;4999044;28;20048;-74
2023/04/26 04:37:03;;;;;;;14.57;7.80;;;;;;;;;;4998098;28;20037;-72
2023/04/26 04:39:29;;;;;;;12.85;6.68;;;;;;;;;;4998904;28;20148;-71
2023/04/26 04:41:57;;;;;;;13.98;6.20;;;;;;;;;;4997058;28;20049;-72
2023/04/26 04:44:25;;;;;;;10.77;6.97;;;;;;;;;;4982649;28;20112;-72
2023/04/26 04:46:52;;;;;;;16.30;6.88;;;;;;;;;;4999193;28;20042;-71
2023/04/26 04:49:18;;;;;;;12.27;7.07;;;;;;;;;;4999744;28;20133;-72
2023/04/26 04:51:44;;;;;;;15.80;6.93;;;;;;;;;;4999293;28;20132;-72
2023/04/26 04:54:11;;;;;;;9.18;6.45;;;;;;;;;;4999178;28;20050;-72
2023/04/26 04:56:37;;;;;;;12.18;6.38;;;;;;;;;;5014894;28;20507;-72
2023/04/26 04:59:03;;;;;;;10.52;5.93;;;;;;;;;;4989549;28;20060;-72
2023/04/26 05:01:31;;;;;;;9.27;5.50;;;;;;;;;;4998240;28;20530;-72
2023/04/26 05:03:58;;;;;;;10.88;6.63;;;;;;;;;;4997673;28;20061;-71
2023/04/26 05:06:24;;;;;;;11.88;6.65;;;;;;;;;;4998326;28;20713;-72
2023/04/26 05:08:49;;;;;;;8.88;5.60;;;;;;;;;;4997135;28;20058;-73
2023/04/26 05:11:15;;;;;;;12.35;7.05;;;;;;;;;;4996898;28;20042;-73
2023/04/26 05:13:41;;;;;;;11.18;6.25;;;;;;;;;;5013102;28;20057;-73
2023/04/26 05:16:06;;;;;;;12.85;7.40;;;;;;;;;;4996876;28;20517;-75
2023/04/26 05:18:32;;;;;;;10.63;6.28;;;;;;;;;;4997622;28;20049;-75
2023/04/26 05:20:58;;;;;;;13.70;6.55;;;;;;;;;;4996648;28;20042;-72
2023/04/26 05:23:24;;;;;;;10.70;6.57;;;;;;;;;;4997320;28;20485;-75
2023/04/26 05:25:50;;;;;;;10.65;6.72;;;;;;;;;;5000132;28;20499;-73
2023/04/26 05:28:38;;;;;;;10.30;6.22;;;;;;;;;;5003251;28;20042;-73
2023/04/26 05:31:16;;;;;;;9.85;5.80;;;;;;;;;;5000664;28;20046;-73
2023/04/26 05:33:57;;;;;;;11.25;6.18;;;;;;;;;;4999991;28;20052;-74
2023/04/26 05:36:28;;;;;;;11.95;6.15;;;;;;;;;;5002976;28;20778;-72
2023/04/26 05:38:54;;;;;;;13.75;6.78;;;;;;;;;;5000894;28;20100;-74
2023/04/26 05:41:19;;;;;;;8.23;5.78;;;;;;;;;;5002100;28;20038;-74
2023/04/26 05:43:46;;;;;;;10.40;5.82;;;;;;;;;;5000622;28;20077;-73
2023/04/26 05:46:12;;;;;;;8.25;5.50;;;;;;;;;;5001938;28;20080;-72
2023/04/26 05:48:39;;;;;;;11.13;6.03;;;;;;;;;;5001796;28;20088;-73
2023/04/26 05:51:05;;;;;;;10.38;6.15;;;;;;;;;;5001891;28;20050;-73
2023/04/26 05:53:30;;;;;;;11.38;6.65;;;;;;;;;;5001312;28;20134;-72
2023/04/26 05:55:56;;;;;;;11.10;6.32;;;;;;;;;;5001174;28;20192;-73
2023/04/26 05:58:21;;;;;;;10.85;6.60;;;;;;;;;;5001769;28;20196;-72
2023/04/26 06:00:48;;;;;;;11.90;6.78;;;;;;;;;;5013116;28;20062;-74
2023/04/26 06:03:14;;;;;;;8.93;6.47;;;;;;;;;;5001034;28;20630;-74
2023/04/26 06:05:40;;;;;;;10.88;7.20;;;;;;;;;;5017828;28;20041;-73
2023/04/26 06:08:05;;;;;;;16.80;6.43;;;;;;;;;;5000961;28;20061;-75
2023/04/26 06:10:31;;;;;;;9.82;6.30;;;;;;;;;;5001718;28;20042;-72
2023/04/26 06:12:56;;;;;;;11.00;6.82;;;;;;;;;;5000955;28;20095;-74
2023/04/26 06:15:28;;;;;;;12.57;6.97;;;;;;;;;;4984919;28;20410;-73
2023/04/26 06:17:53;;;;;;;12.27;6.45;;;;;;;;;;5000462;28;20046;-72
2023/04/26 06:20:19;;;;;;;8.43;5.45;;;;;;;;;;5001336;28;20050;-72
2023/04/26 06:22:45;;;;;;;11.23;5.95;;;;;;;;;;5001237;28;20049;-74
2023/04/26 06:25:11;;;;;;;11.82;6.35;;;;;;;;;;5000810;28;20052;-74
2023/04/26 06:27:40;;;;;;;8.15;5.78;;;;;;;;;;5016661;28;20501;-74
2023/04/26 06:30:06;;;;;;;10.18;6.03;;;;;;;;;;5000834;28;20688;-75
2023/04/26 06:32:35;;;;;;;13.80;6.28;;;;;;;;;;4998048;28;20068;-73
2023/04/26 06:35:00;;;;;;;8.18;6.55;;;;;;;;;;5002127;28;20069;-73
2023/04/26 06:37:27;;;;;;;9.10;5.85;;;;;;;;;;5001401;28;20502;-73
2023/04/26 06:39:53;;;;;;;15.98;6.90;;;;;;;;;;5000367;28;20046;-73
2023/04/26 06:42:19;;;;;;;12.07;6.53;;;;;;;;;;5000215;28;20056;-75
2023/04/26 06:45:04;;;;;;;15.43;6.68;;;;;;;;;;5002026;28;20128;-75
2023/04/26 06:47:32;;;;;;;13.57;6.47;;;;;;;;;;5000078;28;20129;-74
2023/04/26 06:49:58;;;;;;;10.73;6.28;;;;;;;;;;5000181;28;20103;-76
2023/04/26 06:52:23;;;;;;;9.07;6.03;;;;;;;;;;5002004;28;20160;-73
2023/04/26 06:54:49;;;;;;;11.82;6.63;;;;;;;;;;5001767;28;20042;-73
2023/04/26 06:57:14;;;;;;;8.48;5.35;;;;;;;;;;5003383;28;20497;-74
2023/04/26 06:59:40;;;;;;;10.93;6.15;;;;;;;;;;5001891;28;20057;-74
2023/04/26 07:02:05;;;;;;;13.02;6.45;;;;;;;;;;5001543;28;20068;-74
2023/04/26 07:04:31;;;;;;;9.23;5.88;;;;;;;;;;5002368;28;20049;-78
2023/04/26 07:06:56;;;;;;;11.10;6.63;;;;;;;;;;5002282;28;20503;-74
2023/04/26 07:09:22;;;;;;;10.50;6.15;;;;;;;;;;5001442;28;20499;-77
2023/04/26 07:11:47;;;;;;;10.95;6.60;;;;;;;;;;5001436;28;20124;-72
2023/04/26 07:14:13;;;;;;;14.07;6.88;;;;;;;;;;5001716;28;20486;-73
2023/04/26 07:16:38;;;;;;;10.15;6.72;;;;;;;;;;5002070;28;20434;-75
2023/04/26 07:19:05;;;;;;;14.88;6.90;;;;;;;;;;5001527;28;20046;-74
2023/04/26 07:21:30;;;;;;;12.13;6.50;;;;;;;;;;5000590;28;20041;-78
2023/04/26 07:23:56;;;;;;;11.35;6.35;;;;;;;;;;5002382;28;20050;-76
2023/04/26 07:26:23;;;;;;;11.90;6.82;;;;;;;;;;5002905;28;20053;-76
2023/04/26 07:28:52;;;;;;;9.82;5.60;;;;;;;;;;5003665;28;20088;-74
2023/04/26 07:31:18;;;;;;;11.40;6.30;;;;;;;;;;5001818;28;20042;-76
2023/04/26 07:33:44;;;;;;;8.85;5.82;;;;;;;;;;5001825;28;20137;-79
2023/04/26 07:36:10;;;;;;;15.05;5.93;;;;;;;;;;5001654;28;20137;-76
2023/04/26 07:38:35;;;;;;;11.25;5.32;;;;;;;;;;5002135;28;20156;-74
2023/04/26 07:41:01;;;;;;;12.88;5.40;;;;;;;;;;5002970;28;20137;-74
2023/04/26 07:43:26;;;;;;;9.43;5.07;;;;;;;;;;5002663;28;20053;-76
2023/04/26 07:45:52;;;;;;;12.73;5.45;;;;;;;;;;5002662;28;20414;-77
2023/04/26 07:48:18;;;;;;;11.27;4.80;;;;;;;;;;4992243;28;20065;-74
2023/04/26 07:50:43;;;;;;;8.82;5.20;;;;;;;;;;5003750;28;20057;-73
2023/04/26 07:53:09;;;;;;;9.90;4.85;;;;;;;;;;5003752;28;20052;-74
2023/04/26 07:55:36;;;;;;;11.60;5.47;;;;;;;;;;5004735;28;20140;-74
2023/04/26 07:58:02;;;;;;;12.88;6.00;;;;;;;;;;5005563;28;21000;-73
2023/04/26 08:00:27;;;;;;;13.60;5.63;;;;;;;;;;5006197;28;20050;-76
2023/04/26 08:02:53;;;;;;;7.25;4.70;;;;;;;;;;5007785;28;20050;-73
2023/04/26 08:05:18;;;;;;;12.13;4.88;;;;;;;;;;5005919;28;20081;-75
2023/04/26 08:07:44;;;;;;;9.77;4.40;;;;;;;;;;5007866;28;20103;-72
2023/04/26 08:10:10;;;;;;;8.18;4.68;;;;;;;;;;5001813;28;20046;-71
2023/04/26 08:12:36;;;;;;;6.05;3.85;;;;;;;;;;5000890;28;20045;-75
2023/04/26 08:15:07;;;;;;;7.28;3.83;;;;;;;;;;5000731;28;20073;-71
2023/04/26 08:17:32;;;;;;;10.35;4.60;;;;;;;;;;4998918;28;20038;-71
2023/04/26 08:19:58;;;;;;;7.03;4.00;;;;;;;;;;4999763;28;20046;-71
2023/04/26 08:22:24;;;;;;;7.03;3.72;;;;;;;;;;5000506;28;20049;-72
2023/04/26 08:24:53;;;;;;;5.20;3.85;;;;;;;;;;5000548;28;20108;-71
2023/04/26 08:27:18;;;;;;;6.28;3.83;;;;;;;;;;4999710;28;20149;-77
2023/04/26 08:29:45;;;;;;;7.68;3.40;;;;;;;;;;4999106;28;20168;-70
2023/04/26 08:32:10;;;;;;;5.82;3.40;;;;;;;;;;5000243;28;20116;-70
2023/04/26 08:34:36;;;;;;;6.55;3.42;;;;;;;;;;4995571;28;20050;-70
2023/04/26 08:37:01;;;;;;;5.00;3.40;;;;;;;;;;4998248;28;20065;-70
2023/04/26 08:39:27;;;;;;;3.00;2.70;;;;;;;;;;4997776;28;20506;-71
2023/04/26 08:41:54;;;;;;;5.30;2.90;;;;;;;;;;4998690;28;20950;-71
2023/04/26 08:44:24;;;;;;;3.30;3.00;;;;;;;;;;4999207;28;21004;-71
2023/04/26 08:47:04;;;;;;;3.78;2.75;;;;;;;;;;4999412;28;20049;-71
2023/04/26 08:49:46;;;;;;;3.22;2.58;;;;;;;;;;4999668;28;20048;-71
2023/04/26 08:52:13;;;;;;;3.72;2.75;;;;;;;;;;4998685;28;20045;-71
2023/04/26 08:54:40;;;;;;;3.88;2.60;;;;;;;;;;4987146;28;20062;-71
2023/04/26 08:57:06;;;;;;;3.13;2.40;;;;;;;;;;4984994;28;20069;-71
2023/04/26 08:59:36;;;;;;;2.97;2.20;;;;;;;;;;4999463;28;20065;-71
2023/04/26 09:02:03;;;;;;;4.82;2.10;;;;;;;;;;5002212;28;20053;-71
2023/04/26 09:04:28;;;;;;;5.47;2.25;;;;;;;;;;5003263;28;20046;-71
2023/04/26 09:06:59;;;;;;;2.85;1.90;;;;;;;;;;5002146;28;20149;-71
2023/04/26 09:09:27;;;;;;;2.13;1.88;;;;;;;;;;5003419;28;20050;-71
2023/04/26 09:11:58;;;;;;;6.78;2.40;;;;;;;;;;5002070;28;20104;-71
2023/04/26 09:14:25;;;;;;;2.88;2.20;;;;;;;;;;5000924;28;20104;-72
2023/04/26 09:16:51;;;;;;;4.93;2.92;;;;;;;;;;5003174;28;20038;-72
2023/04/26 09:19:17;;;;;;;5.55;2.45;;;;;;;;;;5003503;28;20602;-71
2023/04/26 09:21:45;;;;;;;5.43;2.40;;;;;;;;;;5000254;28;20066;-71
2023/04/26 09:24:12;;;;;;;4.38;2.90;;;;;;;;;;5000722;28;20103;-72
2023/04/26 09:26:38;;;;;;;3.20;2.10;;;;;;;;;;5002273;28;20076;-70
2023/04/26 09:29:17;;;;;;;4.25;1.80;;;;;;;;;;5002813;28;20078;-71
2023/04/26 09:31:47;;;;;;;3.97;2.15;;;;;;;;;;5001333;28;20046;-71
2023/04/26 09:34:14;;;;;;;4.18;2.25;;;;;;;;;;5001788;28;20125;-71
2023/04/26 09:37:11;;;;;;;3.50;2.10;;;;;;;;;;4978975;28;20729;-72
2023/04/26 09:39:40;;;;;;;5.78;2.30;;;;;;;;;;5017187;28;20068;-71
2023/04/26 09:42:07;;;;;;;3.42;1.70;;;;;;;;;;5001769;28;20042;-72
2023/04/26 09:44:33;;;;;;;3.95;1.70;;;;;;;;;;5001775;28;20103;-71
2023/04/26 09:47:08;;;;;;;4.88;1.83;;;;;;;;;;5002432;28;20037;-71
2023/04/26 09:49:50;;;;;;;7.57;1.75;;;;;;;;;;5001377;28;20053;-71
2023/04/26 09:52:17;;;;;;;2.92;1.92;;;;;;;;;;5002247;28;20054;-71
2023/04/26 09:54:43;;;;;;;2.90;1.60;;;;;;;;;;5002019;28;20053;-71
2023/04/26 09:57:11;;;;;;;6.47;2.35;;;;;;;;;;5001939;28;20045;-71
2023/04/26 10:00:09;;;;;;;1.75;1.50;;;;;;;;;;5002620;28;20044;-72
2023/04/26 10:02:35;;;;;;;3.30;1.70;;;;;;;;;;4985506;28;20053;-71
2023/04/26 10:05:01;;;;;;;6.10;2.00;;;;;;;;;;5002234;28;20061;-70
2023/04/26 10:07:32;;;;;;;3.97;1.88;;;;;;;;;;5002213;28;20050;-69
2023/04/26 10:09:58;;;;;;;3.25;2.35;;;;;;;;;;5002251;28;20495;-72
2023/04/26 10:12:23;;;;;;;2.72;2.40;;;;;;;;;;5001141;28;20064;-72
2023/04/26 10:14:52;;;;;;;4.55;2.88;;;;;;;;;;5002483;28;20041;-73
2023/04/26 10:17:18;;;;;;;4.97;2.75;;;;;;;;;;5002132;28;20106;-72
2023/04/26 10:19:45;;;;;;;3.25;2.58;;;;;;;;;;5001924;28;20052;-72
2023/04/26 10:22:22;;;;;;;9.90;3.08;;;;;;;;;;5001091;28;20045;-72
2023/04/26 10:24:48;;;;;;;6.35;3.47;;;;;;;;;;5002199;28;20045;-70
2023/04/26 10:27:15;;;;;;;7.20;2.80;;;;;;;;;;5000762;28;20053;-71
2023/04/26 10:29:55;;;;;;;5.05;2.75;;;;;;;;;;5001306;28;20085;-71
2023/04/26 10:32:21;;;;;;;5.25;2.92;;;;;;;;;;4995373;28;20050;-71
2023/04/26 10:35:20;;;;;;;5.93;3.08;;;;;;;;;;4998944;28;20796;-71
2023/04/26 10:38:01;;;;;;;4.25;2.83;;;;;;;;;;4967965;28;20057;-71
2023/04/26 10:40:31;;;;;;;5.95;2.65;;;;;;;;;;4983971;28;20181;-72
2023/04/26 10:43:13;;;;;;;6.65;2.63;;;;;;;;;;5001955;28;20414;-71
2023/04/26 10:45:40;;;;;;;4.13;3.10;;;;;;;;;;5001770;28;20049;-71
2023/04/26 10:48:20;;;;;;;6.85;2.95;;;;;;;;;;5001264;28;20053;-72
2023/04/26 10:51:03;;;;;;;3.85;2.38;;;;;;;;;;4997925;28;20116;-72
2023/04/26 10:53:31;;;;;;;5.18;2.20;;;;;;;;;;5001406;28;20093;-72
2023/04/26 10:55:57;;;;;;;2.38;2.05;;;;;;;;;;4999561;28;20085;-71
2023/04/26 10:58:33;;;;;;;6.47;2.30;;;;;;;;;;5002277;28;20081;-72
2023/04/26 11:01:15;;;;;;;1.80;1.55;;;;;;;;;;5000558;28;20402;-73
2023/04/26 11:03:41;;;;;;;5.38;1.90;;;;;;;;;;5001180;28;20053;-72
2023/04/26 11:06:08;;;;;;;4.72;2.15;;;;;;;;;;5001135;28;20050;-71
2023/04/26 11:08:35;;;;;;;4.10;2.28;;;;;;;;;;5001229;28;20057;-72
2023/04/26 11:11:01;;;;;;;2.40;2.05;;;;;;;;;;5001640;28;20422;-71
2023/04/26 11:13:29;;;;;;;3.20;2.08;;;;;;;;;;5000493;28;20498;-71
2023/04/26 11:16:02;;;;;;;3.47;2.08;;;;;;;;;;4999519;28;21124;-71
2023/04/26 11:18:29;;;;;;;3.10;2.13;;;;;;;;;;5001571;28;20046;-71
2023/04/26 11:20:54;;;;;;;5.35;2.90;;;;;;;;;;5001793;28;20522;-71
2023/04/26 11:23:22;;;;;;;3.03;2.25;;;;;;;;;;5000480;28;20050;-72
2023/04/26 11:25:47;;;;;;;3.33;2.10;;;;;;;;;;5001022;28;20078;-74
2023/04/26 11:28:13;;;;;;;4.63;1.85;;;;;;;;;;5001682;28;20486;-72
2023/04/26 11:30:39;;;;;;;3.40;1.83;;;;;;;;;;5001104;28;20956;-72
2023/04/26 11:33:05;;;;;;;6.00;1.70;;;;;;;;;;5001602;28;20065;-72
2023/04/26 11:35:34;;;;;;;4.53;1.92;;;;;;;;;;5000018;28;20077;-71
2023/04/26 11:38:02;;;;;;;1.73;1.58;;;;;;;;;;5000069;28;20042;-72
2023/04/26 11:40:30;;;;;;;4.40;1.80;;;;;;;;;;5000734;28;20042;-73
2023/04/26 11:43:00;;;;;;;2.95;2.20;;;;;;;;;;5000946;28;20052;-72
2023/04/26 11:45:25;;;;;;;2.72;2.08;;;;;;;;;;5000404;28;20121;-73
2023/04/26 11:47:51;;;;;;;3.30;1.90;;;;;;;;;;4999870;28;20129;-72
2023/04/26 11:50:17;;;;;;;4.05;2.20;;;;;;;;;;5001780;28;20077;-71
2023/04/26 11:52:43;;;;;;;6.20;2.20;;;;;;;;;;5000733;28;20073;-72
2023/04/26 11:55:09;;;;;;;4.63;2.10;;;;;;;;;;5000225;28;20081;-71
2023/04/26 11:57:34;;;;;;;3.03;2.22;;;;;;;;;;5001029;28;20049;-73
2023/04/26 12:00:13;;;;;;;2.85;2.10;;;;;;;;;;5000031;28;20050;-73
2023/04/26 12:02:48;;;;;;;2.53;1.90;;;;;;;;;;5000741;28;20049;-72
2023/04/26 12:05:30;;;;;;;2.78;1.73;;;;;;;;;;4999041;28;20491;-73
2023/04/26 12:07:57;;;;;;;4.78;1.83;;;;;;;;;;4999011;28;20045;-71
2023/04/26 12:10:24;;;;;;;4.03;1.50;;;;;;;;;;5001019;28;20046;-71
2023/04/26 12:12:51;;;;;;;2.00;1.77;;;;;;;;;;5000089;28;20045;-71
2023/04/26 12:15:17;;;;;;;3.28;2.10;;;;;;;;;;5000451;28;20046;-71
2023/04/26 12:17:59;;;;;;;2.33;1.73;;;;;;;;;;4999318;28;20060;-72
2023/04/26 12:20:25;;;;;;;;;;;;;;;;;;5000368;28;20084;-71
2023/04/26 12:22:58;;;;;;;8.25;2.20;;;;;;;;;;4999881;28;19948;-71
2023/04/26 12:25:24;;;;;;;2.80;2.00;;;;;;;;;;4998718;28;20132;-71
2023/04/26 12:27:49;;;;;;;3.90;2.13;;;;;;;;;;4998898;28;20042;-71
2023/04/26 12:30:15;;;;;;;6.18;2.90;;;;;;;;;;4996031;28;20045;-71
2023/04/26 12:32:40;;;;;;;5.90;3.75;;;;;;;;;;4996024;28;20486;-72
2023/04/26 12:35:06;;;;;;;5.85;3.65;;;;;;;;;;5002132;28;20049;-71
2023/04/26 12:37:31;;;;;;;8.10;3.80;;;;;;;;;;5005068;28;20045;-72
2023/04/26 12:39:57;;;;;;;6.88;3.35;;;;;;;;;;5005923;28;20052;-70
2023/04/26 12:42:22;;;;;;;10.13;3.53;;;;;;;;;;5006935;28;20084;-71
2023/04/26 12:44:48;;;;;;;5.63;3.08;;;;;;;;;;5006798;28;20499;-71
2023/04/26 12:47:13;;;;;;;4.07;3.10;;;;;;;;;;5006632;28;20064;-71
2023/04/26 12:49:38;;;;;;;8.35;3.00;;;;;;;;;;5007270;28;20053;-70
2023/04/26 12:52:04;;;;;;;4.28;3.20;;;;;;;;;;5006647;28;20129;-69
2023/04/26 12:54:29;;;;;;;4.78;3.33;;;;;;;;;;5007206;28;20410;-69
2023/04/26 12:56:55;;;;;;;6.35;3.38;;;;;;;;;;5006611;28;20624;-69
2023/04/26 12:59:20;;;;;;;7.00;3.20;;;;;;;;;;5007152;28;20050;-69
2023/04/26 13:01:46;;;;;;;8.77;3.10;;;;;;;;;;5004954;28;20534;-69
2023/04/26 13:04:11;;;;;;;5.20;2.35;;;;;;;;;;5006096;28;20049;-70
2023/04/26 13:06:37;;;;;;;8.60;3.13;;;;;;;;;;5006850;28;20046;-70
2023/04/26 13:09:03;;;;;;;6.53;3.05;;;;;;;;;;5007000;28;20715;-70
2023/04/26 13:11:31;;;;;;;7.90;2.90;;;;;;;;;;5007081;28;20190;-72
2023/04/26 13:13:56;;;;;;;4.03;2.83;;;;;;;;;;5004227;28;20141;-70
2023/04/26 13:16:21;;;;;;;8.38;3.35;;;;;;;;;;5006772;28;20048;-70
2023/04/26 13:18:47;;;;;;;9.65;3.10;;;;;;;;;;5004754;28;20040;-68
2023/04/26 13:21:12;;;;;;;5.50;3.40;;;;;;;;;;5006986;28;20045;-69
2023/04/26 13:23:38;;;;;;;5.32;3.20;;;;;;;;;;5006078;28;20046;-70
2023/04/26 13:26:03;;;;;;;12.38;3.70;;;;;;;;;;5005722;28;20502;-70
2023/04/26 13:28:29;;;;;;;5.30;2.80;;;;;;;;;;5006382;28;20048;-70
2023/04/26 13:30:54;;;;;;;4.10;2.67;;;;;;;;;;5006202;28;20054;-70
2023/04/26 13:33:20;;;;;;;5.43;2.95;;;;;;;;;;5005998;28;20048;-70
2023/04/26 13:35:45;;;;;;;4.45;3.45;;;;;;;;;;5005971;28;20046;-70
2023/04/26 13:38:11;;;;;;;3.95;2.40;;;;;;;;;;5006476;28;20379;-70
2023/04/26 13:40:37;;;;;;;6.93;3.38;;;;;;;;;;5007072;28;20046;-71
2023/04/26 13:43:02;;;;;;;5.72;2.55;;;;;;;;;;5006735;28;20057;-70
2023/04/26 13:45:28;;;;;;;7.20;2.67;;;;;;;;;;5005828;28;20100;-70
2023/04/26 13:47:53;;;;;;;5.05;2.78;;;;;;;;;;5003176;28;20045;-71
2023/04/26 13:50:19;;;;;;;4.85;2.60;;;;;;;;;;5003768;28;20469;-70
2023/04/26 13:52:45;;;;;;;6.75;2.58;;;;;;;;;;5003341;28;20065;-70
2023/04/26 13:55:10;;;;;;;3.45;2.60;;;;;;;;;;5003545;28;20065;-70
2023/04/26 13:57:36;;;;;;;4.25;2.35;;;;;;;;;;5003316;28;20125;-70
2023/04/26 14:00:02;;;;;;;3.35;2.35;;;;;;;;;;5000466;28;20041;-72
2023/04/26 14:02:37;;;;;;;3.78;2.83;;;;;;;;;;5001552;28;20050;-70
2023/04/26 14:05:03;;;;;;;8.93;4.90;;;;;;;;;;5002470;28;20517;-70
2023/04/26 14:07:29;;;;;;;12.00;3.47;;;;;;;;;;5002431;28;20058;-70
2023/04/26 14:09:54;;;;;;;9.30;3.72;;;;;;;;;;5017203;28;20050;-71
2023/04/26 14:12:19;;;;;;;4.65;3.33;;;;;;;;;;4993373;28;20058;-70
2023/04/26 14:14:45;;;;;;;3.78;3.00;;;;;;;;;;4998717;28;20052;-70
2023/04/26 14:17:11;;;;;;;5.15;3.33;;;;;;;;;;4999733;28;20512;-71
2023/04/26 14:19:36;;;;;;;4.28;2.95;;;;;;;;;;5000744;28;20037;-71
2023/04/26 14:22:02;;;;;;;5.82;3.30;;;;;;;;;;4997915;28;20053;-71
2023/04/26 14:24:27;;;;;;;4.95;2.90;;;;;;;;;;5001132;28;20160;-72
2023/04/26 14:26:53;;;;;;;6.50;3.25;;;;;;;;;;4999059;28;20778;-72
2023/04/26 14:29:18;;;;;;;8.70;2.97;;;;;;;;;;4998995;28;20471;-71
2023/04/26 14:31:44;;;;;;;5.15;2.90;;;;;;;;;;5000642;28;20053;-71
2023/04/26 14:34:09;;;;;;;7.78;3.30;;;;;;;;;;4999811;28;20053;-71
2023/04/26 14:36:35;;;;;;;3.45;2.05;;;;;;;;;;5001177;28;20054;-71
2023/04/26 14:39:01;;;;;;;4.40;2.80;;;;;;;;;;5000122;28;20172;-72